createdAt,value
2022-12-26T00:01:48.009Z,10.61
2022-12-26T00:03:50.275Z,10.66
2022-12-26T00:05:52.227Z,10.66
2022-12-26T00:07:53.738Z,10.63
2022-12-26T00:09:55.559Z,10.75
2022-12-26T00:11:57.271Z,10.83
2022-12-26T00:14:03.193Z,10.73
2022-12-26T00:16:13.306Z,10.63
2022-12-26T00:18:15.272Z,10.72
2022-12-26T00:20:16.930Z,10.73
2022-12-26T00:22:18.765Z,10.75
2022-12-26T00:24:20.478Z,10.65
2022-12-26T00:26:24.129Z,10.64
2022-12-26T00:28:25.845Z,10.65
2022-12-26T00:30:27.381Z,10.72
2022-12-26T00:32:28.899Z,10.62
2022-12-26T00:34:30.889Z,10.59
2022-12-26T00:36:33.886Z,10.64
2022-12-26T00:38:36.942Z,10.74
2022-12-26T00:40:43.594Z,10.92
2022-12-26T00:42:45.210Z,10.96
2022-12-26T00:44:46.764Z,10.82
2022-12-26T00:46:48.764Z,10.76
2022-12-26T00:48:50.392Z,10.85
2022-12-26T00:50:52.958Z,10.86
2022-12-26T00:52:56.945Z,10.82
2022-12-26T00:54:58.537Z,10.77
2022-12-26T00:57:00.542Z,10.78
2022-12-26T00:59:02.275Z,10.72
2022-12-26T01:01:08.526Z,10.83
2022-12-26T01:03:11.755Z,10.90
2022-12-26T01:05:13.338Z,10.81
2022-12-26T01:07:14.921Z,10.85
2022-12-26T01:09:16.588Z,10.84
2022-12-26T01:11:38.369Z,10.85
2022-12-26T01:13:40.261Z,10.83
2022-12-26T01:15:48.653Z,10.85
2022-12-26T01:17:50.546Z,10.83
2022-12-26T01:19:52.156Z,10.81
2022-12-26T01:21:53.884Z,10.77
2022-12-26T01:23:56.180Z,10.82
2022-12-26T01:26:17.504Z,10.91
2022-12-26T01:28:19.754Z,10.97
2022-12-26T01:30:21.497Z,10.87
2022-12-26T01:32:23.425Z,10.85
2022-12-26T01:34:24.984Z,10.68
2022-12-26T01:36:26.616Z,10.79
2022-12-26T01:38:28.699Z,10.64
2022-12-26T01:40:31.305Z,10.77
2022-12-26T01:42:41.347Z,10.72
2022-12-26T01:45:00.422Z,10.77
2022-12-26T01:47:02.039Z,10.74
2022-12-26T01:49:13.459Z,10.70
2022-12-26T01:51:16.208Z,10.76
2022-12-26T01:53:31.350Z,10.73
2022-12-26T01:55:33.097Z,10.72
2022-12-26T01:57:42.464Z,10.81
2022-12-26T01:59:46.143Z,10.77
2022-12-26T02:01:50.710Z,10.66
2022-12-26T02:04:11.054Z,10.61
2022-12-26T02:06:14.279Z,10.54
2022-12-26T02:08:21.460Z,10.57
2022-12-26T02:10:26.461Z,10.63
2022-12-26T02:12:36.319Z,10.66
2022-12-26T02:14:40.666Z,10.74
2022-12-26T02:16:43.270Z,10.76
2022-12-26T02:18:45.507Z,10.76
2022-12-26T02:21:14.800Z,10.76
2022-12-26T02:23:28.426Z,10.82
2022-12-26T02:25:51.860Z,10.79
2022-12-26T02:28:05.902Z,10.80
2022-12-26T02:30:13.568Z,10.82
2022-12-26T02:32:24.768Z,10.78
2022-12-26T02:34:49.869Z,10.89
2022-12-26T02:37:37.668Z,10.80
2022-12-26T02:40:10.980Z,10.85
2022-12-26T02:42:50.042Z,10.85
2022-12-26T02:45:16.740Z,10.96
2022-12-26T02:47:34.551Z,10.87
2022-12-26T02:50:10.255Z,10.91
2022-12-26T02:52:39.790Z,10.85
2022-12-26T02:55:21.650Z,10.72
2022-12-26T02:57:49.336Z,10.72
2022-12-26T03:00:30.223Z,10.74
2022-12-26T03:03:23.221Z,10.75
2022-12-26T03:05:47.051Z,10.83
2022-12-26T03:08:07.817Z,10.83
2022-12-26T03:10:55.087Z,10.82
2022-12-26T03:13:11.347Z,10.77
2022-12-26T03:15:17.395Z,10.87
2022-12-26T03:17:30.089Z,11.03
2022-12-26T03:19:33.599Z,10.93
2022-12-26T03:21:40.937Z,10.93
2022-12-26T03:23:46.371Z,10.81
2022-12-26T03:26:24.779Z,10.79
2022-12-26T03:28:26.970Z,11.52
2022-12-26T03:30:48.003Z,11.38
2022-12-26T03:32:49.635Z,11.13
2022-12-26T03:34:51.727Z,11.09
2022-12-26T03:37:23.128Z,11.06
2022-12-26T03:39:56.098Z,11.04
2022-12-26T03:42:28.689Z,10.99
2022-12-26T03:45:15.984Z,10.94
2022-12-26T03:47:47.918Z,10.99
2022-12-26T03:50:15.879Z,10.98
2022-12-26T03:52:52.236Z,10.92
2022-12-26T03:55:55.194Z,10.90
2022-12-26T03:58:39.274Z,10.83
2022-12-26T04:01:01.900Z,10.87
2022-12-26T04:03:28.859Z,10.81
2022-12-26T04:05:49.664Z,10.85
2022-12-26T04:08:18.901Z,10.76
2022-12-26T04:10:56.964Z,10.79
2022-12-26T04:13:21.568Z,10.72
2022-12-26T04:15:49.643Z,10.78
2022-12-26T04:18:17.214Z,10.72
2022-12-26T04:20:43.839Z,10.83
2022-12-26T04:23:11.773Z,10.80
2022-12-26T04:25:49.741Z,10.80
2022-12-26T04:28:11.620Z,10.84
2022-12-26T04:30:33.199Z,10.78
2022-12-26T04:33:05.200Z,10.82
2022-12-26T04:35:34.159Z,10.78
2022-12-26T04:37:59.476Z,10.78
2022-12-26T04:40:23.022Z,10.85
2022-12-26T04:42:45.840Z,10.85
2022-12-26T04:44:50.168Z,10.80
2022-12-26T04:46:54.084Z,10.80
2022-12-26T04:49:14.739Z,10.75
2022-12-26T04:51:16.280Z,10.70
2022-12-26T04:53:18.843Z,10.72
2022-12-26T04:55:20.588Z,10.72
2022-12-26T04:57:22.130Z,10.70
2022-12-26T04:59:24.209Z,10.68
2022-12-26T05:01:44.336Z,10.64
2022-12-26T05:04:05.756Z,10.76
2022-12-26T05:06:27.762Z,10.80
2022-12-26T05:09:02.220Z,10.82
2022-12-26T05:11:03.864Z,10.78
2022-12-26T05:13:05.415Z,10.79
2022-12-26T05:15:07.316Z,10.79
2022-12-26T05:17:28.859Z,10.81
2022-12-26T05:19:49.151Z,10.71
2022-12-26T05:22:10.006Z,10.74
2022-12-26T05:24:30.709Z,10.68
2022-12-26T05:26:51.634Z,10.72
2022-12-26T05:29:00.105Z,10.79
2022-12-26T05:31:02.646Z,10.73
2022-12-26T05:33:23.255Z,10.83
2022-12-26T05:35:25.002Z,10.83
2022-12-26T05:37:26.739Z,10.77
2022-12-26T05:39:28.325Z,10.70
2022-12-26T05:41:30.391Z,10.67
2022-12-26T05:43:32.057Z,10.63
2022-12-26T05:45:33.945Z,10.69
2022-12-26T05:47:35.549Z,10.70
2022-12-26T05:49:37.168Z,10.73
2022-12-26T05:51:38.816Z,10.57
2022-12-26T05:53:40.784Z,10.57
2022-12-26T05:55:42.583Z,10.68
2022-12-26T05:57:44.156Z,10.58
2022-12-26T05:59:45.716Z,10.58
2022-12-26T06:01:47.506Z,10.62
2022-12-26T06:03:52.312Z,10.59
2022-12-26T06:05:57.379Z,10.58
2022-12-26T06:07:58.949Z,10.69
2022-12-26T06:10:00.837Z,10.66
2022-12-26T06:12:02.426Z,10.61
2022-12-26T06:14:04.752Z,10.69
2022-12-26T06:16:11.868Z,10.73
2022-12-26T06:18:13.459Z,10.67
2022-12-26T06:20:15.098Z,10.72
2022-12-26T06:22:16.592Z,10.72
2022-12-26T06:24:18.445Z,10.65
2022-12-26T06:26:20.007Z,10.75
2022-12-26T06:28:22.920Z,10.85
2022-12-26T06:30:24.912Z,10.78
2022-12-26T06:32:28.040Z,10.80
2022-12-26T06:34:29.882Z,10.77
2022-12-26T06:36:31.449Z,10.69
2022-12-26T06:38:33.636Z,10.69
2022-12-26T06:40:41.712Z,10.64
2022-12-26T06:42:43.323Z,10.67
2022-12-26T06:44:44.915Z,10.63
2022-12-26T06:46:46.499Z,10.58
2022-12-26T06:48:48.169Z,10.53
2022-12-26T06:50:50.375Z,10.49
2022-12-26T06:52:52.184Z,10.43
2022-12-26T06:54:53.757Z,10.69
2022-12-26T06:56:55.396Z,10.62
2022-12-26T06:59:00.462Z,10.60
2022-12-26T07:01:16.606Z,10.55
2022-12-26T07:03:18.257Z,10.63
2022-12-26T07:05:19.849Z,10.65
2022-12-26T07:07:22.016Z,10.53
2022-12-26T07:09:28.411Z,10.62
2022-12-26T07:11:35.936Z,10.51
2022-12-26T07:13:37.671Z,10.50
2022-12-26T07:15:39.256Z,10.42
2022-12-26T07:17:40.965Z,10.54
2022-12-26T07:19:42.620Z,10.43
2022-12-26T07:21:44.445Z,10.37
2022-12-26T07:23:46.007Z,10.37
2022-12-26T07:25:48.921Z,10.26
2022-12-26T07:27:53.805Z,10.20
2022-12-26T07:29:55.453Z,10.20
2022-12-26T07:31:58.097Z,10.26
2022-12-26T07:33:59.735Z,10.09
2022-12-26T07:36:04.665Z,10.09
2022-12-26T07:38:06.370Z,10.07
2022-12-26T07:40:08.616Z,10.12
2022-12-26T07:42:10.614Z,10.05
2022-12-26T07:44:12.260Z,10.07
2022-12-26T07:46:13.959Z,10.06
2022-12-26T07:48:15.585Z,10.11
2022-12-26T07:50:17.219Z,10.22
2022-12-26T07:52:19.833Z,10.22
2022-12-26T07:54:21.458Z,10.15
2022-12-26T07:56:23.865Z,10.05
2022-12-26T07:58:26.137Z,10.09
2022-12-26T08:00:27.661Z,9.95
2022-12-26T08:02:29.471Z,9.88
2022-12-26T08:04:33.988Z,9.91
2022-12-26T08:06:35.520Z,9.90
2022-12-26T08:08:37.309Z,9.90
2022-12-26T08:10:38.870Z,9.91
2022-12-26T08:12:40.599Z,9.80
2022-12-26T08:14:42.427Z,9.78
2022-12-26T08:16:49.749Z,9.73
2022-12-26T08:18:55.161Z,9.69
2022-12-26T08:20:58.150Z,9.73
2022-12-26T08:22:59.731Z,9.81
2022-12-26T08:25:02.497Z,9.76
2022-12-26T08:27:04.656Z,9.75
2022-12-26T08:29:06.225Z,9.75
2022-12-26T08:31:10.290Z,9.71
2022-12-26T08:33:12.822Z,9.73
2022-12-26T08:35:14.618Z,9.79
2022-12-26T08:37:16.322Z,9.73
2022-12-26T08:39:18.498Z,9.69
2022-12-26T08:41:20.745Z,9.72
2022-12-26T08:44:16.525Z,9.73
2022-12-26T08:45:45.508Z,9.69
2022-12-26T08:47:47.035Z,9.73
2022-12-26T08:49:51.355Z,9.68
2022-12-26T08:51:53.064Z,9.69
2022-12-26T08:53:57.073Z,9.69
2022-12-26T08:55:59.483Z,9.78
2022-12-26T08:58:01.098Z,9.83
2022-12-26T09:00:04.551Z,9.85
2022-12-26T09:02:06.848Z,9.85
2022-12-26T09:04:08.597Z,9.75
2022-12-26T09:06:12.394Z,9.73
2022-12-26T09:08:13.913Z,9.84
2022-12-26T09:10:15.457Z,9.70
2022-12-26T09:12:17.273Z,9.75
2022-12-26T09:14:19.458Z,9.78
2022-12-26T09:16:24.312Z,9.69
2022-12-26T09:18:25.983Z,9.78
2022-12-26T09:20:27.584Z,9.84
2022-12-26T09:22:47.737Z,9.89
2022-12-26T09:24:49.517Z,9.92
2022-12-26T09:26:51.340Z,9.97
2022-12-26T09:28:53.953Z,9.81
2022-12-26T09:31:00.245Z,9.84
2022-12-26T09:33:04.021Z,9.83
2022-12-26T09:35:06.403Z,9.88
2022-12-26T09:37:07.971Z,9.89
2022-12-26T09:39:14.199Z,9.73
2022-12-26T09:41:34.437Z,9.61
2022-12-26T09:44:15.953Z,9.63
2022-12-26T09:46:42.620Z,9.64
2022-12-26T09:48:54.286Z,9.68
2022-12-26T09:50:56.188Z,9.68
2022-12-26T09:53:00.645Z,9.63
2022-12-26T09:55:38.212Z,9.67
2022-12-26T09:57:45.945Z,9.71
2022-12-26T09:59:52.555Z,9.65
2022-12-26T10:01:54.461Z,9.69
2022-12-26T10:03:58.397Z,9.66
2022-12-26T10:06:07.105Z,9.67
2022-12-26T10:08:27.121Z,9.61
2022-12-26T10:10:51.507Z,9.47
2022-12-26T10:12:59.240Z,9.48
2022-12-26T10:15:06.699Z,9.57
2022-12-26T10:17:37.805Z,9.53
2022-12-26T10:20:01.246Z,9.59
2022-12-26T10:22:21.125Z,9.63
2022-12-26T10:24:26.871Z,9.58
2022-12-26T10:26:35.243Z,9.62
2022-12-26T10:28:48.812Z,9.63
2022-12-26T10:30:52.674Z,9.58
2022-12-26T10:33:06.552Z,9.53
2022-12-26T10:35:20.675Z,9.57
2022-12-26T10:37:22.218Z,9.58
2022-12-26T10:39:33.621Z,9.55
2022-12-26T10:41:43.485Z,9.64
2022-12-26T10:43:45.699Z,9.52
2022-12-26T10:46:34.265Z,9.54
2022-12-26T10:48:35.943Z,9.56
2022-12-26T10:50:40.060Z,9.59
2022-12-26T10:52:41.684Z,9.67
2022-12-26T10:54:47.723Z,9.63
2022-12-26T10:56:51.845Z,9.65
2022-12-26T10:59:04.123Z,9.59
2022-12-26T11:01:47.510Z,9.69
2022-12-26T11:03:57.350Z,9.62
2022-12-26T11:06:07.984Z,9.56
2022-12-26T11:08:25.413Z,9.62
2022-12-26T11:10:29.034Z,9.49
2022-12-26T11:12:39.901Z,9.53
2022-12-26T11:14:44.911Z,9.52
2022-12-26T11:16:49.193Z,9.37
2022-12-26T11:18:52.302Z,9.33
2022-12-26T11:20:54.639Z,9.36
2022-12-26T11:23:12.791Z,9.28
2022-12-26T11:25:23.230Z,9.39
2022-12-26T11:27:24.741Z,9.25
2022-12-26T11:29:27.374Z,9.37
2022-12-26T11:31:30.910Z,9.37
2022-12-26T11:33:46.467Z,9.37
2022-12-26T11:35:52.459Z,9.32
2022-12-26T11:37:57.631Z,9.44
2022-12-26T11:40:01.468Z,9.48
2022-12-26T11:42:18.146Z,9.41
2022-12-26T11:44:28.004Z,9.43
2022-12-26T11:46:48.635Z,9.41
2022-12-26T11:48:51.381Z,9.26
2022-12-26T11:50:53.768Z,9.30
2022-12-26T11:52:55.412Z,9.29
2022-12-26T11:54:57.057Z,9.13
2022-12-26T11:57:03.987Z,9.19
2022-12-26T11:59:19.266Z,9.21
2022-12-26T12:01:20.875Z,9.37
2022-12-26T12:03:34.158Z,9.35
2022-12-26T12:05:51.770Z,9.36
2022-12-26T12:08:25.811Z,9.44
2022-12-26T12:10:50.562Z,9.50
2022-12-26T12:13:01.664Z,9.49
2022-12-26T12:15:21.602Z,9.44
2022-12-26T12:18:01.644Z,9.42
2022-12-26T12:20:03.529Z,9.51
2022-12-26T12:22:44.907Z,9.44
2022-12-26T12:24:52.750Z,9.57
2022-12-26T12:27:19.182Z,9.57
2022-12-26T12:29:28.558Z,9.52
2022-12-26T12:32:07.206Z,9.49
2022-12-26T12:34:19.545Z,9.57
2022-12-26T12:36:36.765Z,9.57
2022-12-26T12:38:51.448Z,9.67
2022-12-26T12:41:15.700Z,9.61
2022-12-26T12:43:24.172Z,9.60
2022-12-26T12:45:32.649Z,9.63
2022-12-26T12:48:08.319Z,9.49
2022-12-26T12:50:35.623Z,9.63
2022-12-26T12:52:52.193Z,9.62
2022-12-26T12:55:03.430Z,9.59
2022-12-26T12:57:25.056Z,9.56
2022-12-26T12:59:56.154Z,9.61
2022-12-26T13:02:10.309Z,9.63
2022-12-26T13:04:21.674Z,9.53
2022-12-26T13:06:30.487Z,9.49
2022-12-26T13:08:57.256Z,9.50
2022-12-26T13:11:03.937Z,9.61
2022-12-26T13:13:24.667Z,9.60
2022-12-26T13:15:38.599Z,9.55
2022-12-26T13:18:03.815Z,9.57
2022-12-26T13:20:13.101Z,9.46
2022-12-26T13:22:23.479Z,9.50
2022-12-26T13:24:38.680Z,9.47
2022-12-26T13:26:58.011Z,9.55
2022-12-26T13:29:16.114Z,9.47
2022-12-26T13:31:18.305Z,9.48
2022-12-26T13:33:20.184Z,9.38
2022-12-26T13:35:58.764Z,9.36
2022-12-26T13:38:00.382Z,9.47
2022-12-26T13:40:06.867Z,9.42
2022-12-26T13:42:27.584Z,9.43
2022-12-26T13:44:29.207Z,9.50
2022-12-26T13:46:39.906Z,9.41
2022-12-26T13:48:41.658Z,9.48
2022-12-26T13:50:56.080Z,9.53
2022-12-26T13:52:59.042Z,9.42
2022-12-26T13:55:06.710Z,9.50
2022-12-26T13:57:34.698Z,9.49
2022-12-26T13:59:43.848Z,9.28
2022-12-26T14:02:32.182Z,9.32
2022-12-26T14:05:19.155Z,9.30
2022-12-26T14:07:43.115Z,9.44
2022-12-26T14:09:53.547Z,9.39
2022-12-26T14:12:11.825Z,9.50
2022-12-26T14:14:42.346Z,9.46
2022-12-26T14:17:11.105Z,9.26
2022-12-26T14:19:44.939Z,9.27
2022-12-26T14:22:07.133Z,9.29
2022-12-26T14:24:23.922Z,9.39
2022-12-26T14:26:39.985Z,9.42
2022-12-26T14:28:56.699Z,9.28
2022-12-26T14:31:01.330Z,9.33
2022-12-26T14:33:21.310Z,9.39
2022-12-26T14:35:35.707Z,9.30
2022-12-26T14:37:56.999Z,9.37
2022-12-26T14:40:31.217Z,9.45
2022-12-26T14:43:14.087Z,9.48
2022-12-26T14:45:27.679Z,9.39
2022-12-26T14:47:39.717Z,9.40
2022-12-26T14:49:42.254Z,9.38
2022-12-26T14:51:44.685Z,9.26
2022-12-26T14:54:22.223Z,9.21
2022-12-26T14:56:34.479Z,9.25
2022-12-26T14:58:52.381Z,9.29
2022-12-26T15:00:54.796Z,9.24
2022-12-26T15:02:59.238Z,9.21
2022-12-26T15:05:12.235Z,9.22
2022-12-26T15:07:35.927Z,9.30
2022-12-26T15:09:57.487Z,9.31
2022-12-26T15:12:19.755Z,9.38
2022-12-26T15:14:52.933Z,9.34
2022-12-26T15:17:10.203Z,9.37
2022-12-26T15:19:45.269Z,9.33
2022-12-26T15:22:21.469Z,9.25
2022-12-26T15:25:18.608Z,9.29
2022-12-26T15:27:33.132Z,9.31
2022-12-26T15:29:55.068Z,9.36
2022-12-26T15:32:19.794Z,9.47
2022-12-26T15:34:48.004Z,9.22
2022-12-26T15:36:56.876Z,9.08
2022-12-26T15:39:27.248Z,9.03
2022-12-26T15:41:42.544Z,8.92
2022-12-26T15:44:18.579Z,8.91
2022-12-26T15:46:39.816Z,8.86
2022-12-26T15:48:59.766Z,8.82
2022-12-26T15:51:09.747Z,8.83
2022-12-26T15:53:19.881Z,8.69
2022-12-26T15:55:55.071Z,8.87
2022-12-26T15:58:24.939Z,8.73
2022-12-26T16:00:32.805Z,8.76
2022-12-26T16:02:44.535Z,8.80
2022-12-26T16:04:53.915Z,8.73
2022-12-26T16:07:19.776Z,8.64
2022-12-26T16:09:35.842Z,8.55
2022-12-26T16:11:58.651Z,8.58
2022-12-26T16:14:02.953Z,8.42
2022-12-26T16:16:05.104Z,8.17
2022-12-26T16:18:18.460Z,7.81
2022-12-26T16:20:51.402Z,7.58
2022-12-26T16:22:53.674Z,7.32
2022-12-26T16:24:55.615Z,7.24
2022-12-26T16:27:01.295Z,7.27
2022-12-26T16:29:05.065Z,7.29
2022-12-26T16:31:07.504Z,7.30
2022-12-26T16:33:13.976Z,7.27
2022-12-26T16:35:20.660Z,7.22
2022-12-26T16:37:25.129Z,7.20
2022-12-26T16:39:26.677Z,7.35
2022-12-26T16:41:31.699Z,7.35
2022-12-26T16:43:36.364Z,7.32
2022-12-26T16:45:38.551Z,7.39
2022-12-26T16:47:40.430Z,7.39
2022-12-26T16:49:43.467Z,7.35
2022-12-26T16:51:47.613Z,7.43
2022-12-26T16:53:49.229Z,7.42
2022-12-26T16:56:15.094Z,7.36
2022-12-26T16:58:21.879Z,7.33
2022-12-26T17:00:24.561Z,7.27
2022-12-26T17:02:32.152Z,7.23
2022-12-26T17:04:33.988Z,7.26
2022-12-26T17:06:38.725Z,7.20
2022-12-26T17:08:43.097Z,7.30
2022-12-26T17:10:50.327Z,7.39
2022-12-26T17:12:54.117Z,7.35
2022-12-26T17:14:58.556Z,7.30
2022-12-26T17:17:04.270Z,7.29
2022-12-26T17:19:18.860Z,7.26
2022-12-26T17:21:32.059Z,7.35
2022-12-26T17:23:36.482Z,7.30
2022-12-26T17:25:38.201Z,7.33
2022-12-26T17:27:39.875Z,7.30
2022-12-26T17:29:57.410Z,7.23
2022-12-26T17:31:59.122Z,7.18
2022-12-26T17:34:06.367Z,7.19
2022-12-26T17:38:34.924Z,7.16
2022-12-26T17:40:40.131Z,7.07
2022-12-26T17:42:54.060Z,7.05
2022-12-26T17:44:56.780Z,7.04
2022-12-26T17:47:01.389Z,7.00
2022-12-26T17:49:03.064Z,6.93
2022-12-26T17:51:07.288Z,6.98
2022-12-26T17:53:24.085Z,6.98
2022-12-26T17:55:27.222Z,6.95
2022-12-26T17:57:29.798Z,6.97
2022-12-26T17:59:31.426Z,6.87
2022-12-26T18:01:33.087Z,6.89
2022-12-26T18:03:34.725Z,6.94
2022-12-26T18:05:36.897Z,7.03
2022-12-26T18:07:39.104Z,7.02
2022-12-26T18:09:40.903Z,6.99
2022-12-26T18:11:42.510Z,7.07
2022-12-26T18:13:44.270Z,7.15
2022-12-26T18:15:45.999Z,7.00
2022-12-26T18:17:49.921Z,8.20
2022-12-26T18:19:51.775Z,7.82
2022-12-26T18:21:53.442Z,7.69
2022-12-26T18:23:55.674Z,7.54
2022-12-26T18:26:00.281Z,7.49
2022-12-26T18:28:01.901Z,7.29
2022-12-26T18:30:03.944Z,7.26
2022-12-26T18:32:19.363Z,7.28
2022-12-26T18:34:20.985Z,7.17
2022-12-26T18:36:34.558Z,7.13
2022-12-26T18:38:36.095Z,7.10
2022-12-26T18:40:40.873Z,7.04
2022-12-26T18:42:42.475Z,6.95
2022-12-26T18:44:44.406Z,6.87
2022-12-26T18:46:47.099Z,6.82
2022-12-26T18:48:49.196Z,6.81
2022-12-26T18:50:50.861Z,6.81
2022-12-26T18:52:54.252Z,6.77
2022-12-26T18:54:55.917Z,6.72
2022-12-26T18:56:57.589Z,6.72
2022-12-26T18:58:59.151Z,6.71
2022-12-26T19:01:03.301Z,6.68
2022-12-26T19:03:04.916Z,6.62
2022-12-26T19:05:07.226Z,6.54
2022-12-26T19:07:09.060Z,6.54
2022-12-26T19:09:11.840Z,6.55
2022-12-26T19:11:14.470Z,6.55
2022-12-26T19:13:16.427Z,6.53
2022-12-26T19:15:18.397Z,6.56
2022-12-26T19:17:20.027Z,6.53
2022-12-26T19:19:21.659Z,6.49
2022-12-26T19:21:23.258Z,6.45
2022-12-26T19:23:24.813Z,6.35
2022-12-26T19:25:26.607Z,6.44
2022-12-26T19:27:28.268Z,6.37
2022-12-26T19:29:30.293Z,6.41
2022-12-26T19:31:32.206Z,6.15
2022-12-26T19:33:33.826Z,6.13
2022-12-26T19:35:35.387Z,6.19
2022-12-26T19:37:36.988Z,6.22
2022-12-26T19:39:38.601Z,6.05
2022-12-26T19:41:40.423Z,6.08
2022-12-26T19:43:42.694Z,6.08
2022-12-26T19:45:45.678Z,6.16
2022-12-26T19:47:47.484Z,6.07
2022-12-26T19:49:49.031Z,6.00
2022-12-26T19:51:50.996Z,5.96
2022-12-26T19:53:52.725Z,6.01
2022-12-26T19:55:54.593Z,5.88
2022-12-26T19:57:56.208Z,5.81
2022-12-26T19:59:57.780Z,5.88
2022-12-26T20:01:59.762Z,5.85
2022-12-26T20:04:03.964Z,5.79
2022-12-26T20:06:20.069Z,5.74
2022-12-26T20:08:21.655Z,5.75
2022-12-26T20:10:23.574Z,5.53
2022-12-26T20:12:25.138Z,5.55
2022-12-26T20:14:27.558Z,5.55
2022-12-26T20:17:03.876Z,5.59
2022-12-26T20:18:51.729Z,5.53
2022-12-26T20:20:53.982Z,5.54
2022-12-26T20:22:55.639Z,5.39
2022-12-26T20:24:57.182Z,5.34
2022-12-26T20:26:58.755Z,5.22
2022-12-26T20:29:02.019Z,5.25
2022-12-26T20:31:16.075Z,5.33
2022-12-26T20:33:17.911Z,5.28
2022-12-26T20:35:19.448Z,5.29
2022-12-26T20:37:21.030Z,5.31
2022-12-26T20:39:23.286Z,5.30
2022-12-26T20:41:26.299Z,5.32
2022-12-26T20:43:28.145Z,5.22
2022-12-26T20:45:29.689Z,5.26
2022-12-26T20:47:31.353Z,5.28
2022-12-26T20:49:33.565Z,5.29
2022-12-26T20:51:38.149Z,5.13
2022-12-26T20:53:39.907Z,5.18
2022-12-26T20:55:41.536Z,5.13
2022-12-26T20:57:43.157Z,5.05
2022-12-26T20:59:44.728Z,5.21
2022-12-26T21:01:46.450Z,5.17
2022-12-26T21:03:51.326Z,5.17
2022-12-26T21:05:53.208Z,5.15
2022-12-26T21:07:54.810Z,5.04
2022-12-26T21:09:56.351Z,5.02
2022-12-26T21:11:57.882Z,5.01
2022-12-26T21:14:06.070Z,5.00
2022-12-26T21:16:26.648Z,4.93
2022-12-26T21:18:28.248Z,5.02
2022-12-26T21:20:30.434Z,5.03
2022-12-26T21:22:31.998Z,4.92
2022-12-26T21:24:33.615Z,4.83
2022-12-26T21:26:36.639Z,6.03
2022-12-26T21:28:39.520Z,5.51
2022-12-26T21:30:45.292Z,5.17
2022-12-26T21:32:47.360Z,5.05
2022-12-26T21:34:48.936Z,4.80
2022-12-26T21:37:09.746Z,4.74
2022-12-26T21:39:12.257Z,4.66
2022-12-26T21:41:14.498Z,4.72
2022-12-26T21:43:16.859Z,4.56
2022-12-26T21:45:19.630Z,4.52
2022-12-26T21:47:21.514Z,4.54
2022-12-26T21:49:23.134Z,4.45
2022-12-26T21:51:25.763Z,4.50
2022-12-26T21:53:27.340Z,4.55
2022-12-26T21:55:31.032Z,4.54
2022-12-26T21:57:34.153Z,4.43
2022-12-26T21:59:54.941Z,4.43
2022-12-26T22:01:56.667Z,4.42
2022-12-26T22:04:16.862Z,4.39
2022-12-26T22:06:18.557Z,4.43
2022-12-26T22:08:20.485Z,4.36
2022-12-26T22:10:42.214Z,4.29
2022-12-26T22:12:58.886Z,4.20
2022-12-26T22:15:00.730Z,4.04
2022-12-26T22:17:02.342Z,4.09
2022-12-26T22:19:04.311Z,3.95
2022-12-26T22:21:10.852Z,3.89
2022-12-26T22:23:13.459Z,3.94
2022-12-26T22:25:15.839Z,3.92
2022-12-26T22:27:17.486Z,3.82
2022-12-26T22:29:19.050Z,3.80
2022-12-26T22:31:25.122Z,3.66
2022-12-26T22:33:27.642Z,3.57
2022-12-26T22:35:29.183Z,3.48
2022-12-26T22:37:30.850Z,3.17
2022-12-26T22:39:32.881Z,3.19
2022-12-26T22:41:34.692Z,3.15
2022-12-26T22:43:36.912Z,3.21
2022-12-26T22:45:41.180Z,3.02
2022-12-26T22:47:42.951Z,3.02
2022-12-26T22:49:44.604Z,2.95
2022-12-26T22:51:46.391Z,2.98
2022-12-26T22:53:48.319Z,2.91
2022-12-26T22:55:52.552Z,2.93
2022-12-26T22:57:55.804Z,2.78
2022-12-26T23:00:09.665Z,2.81
2022-12-26T23:02:12.149Z,2.75
2022-12-26T23:04:14.172Z,2.79
2022-12-26T23:06:27.609Z,2.91
2022-12-26T23:08:29.893Z,2.84
2022-12-26T23:10:32.532Z,2.84
2022-12-26T23:12:43.277Z,2.77
2022-12-26T23:14:45.080Z,2.55
2022-12-26T23:16:57.700Z,2.60
2022-12-26T23:19:24.257Z,2.51
2022-12-26T23:21:39.044Z,2.53
2022-12-26T23:23:40.796Z,2.42
2022-12-26T23:25:42.547Z,2.43
2022-12-26T23:28:02.868Z,2.37
2022-12-26T23:30:17.900Z,2.43
2022-12-26T23:32:19.511Z,2.31
2022-12-26T23:34:21.278Z,2.20
2022-12-26T23:36:22.891Z,2.10
2022-12-26T23:38:24.589Z,2.05
2022-12-26T23:40:26.490Z,2.03
2022-12-26T23:42:28.168Z,2.20
2022-12-26T23:44:31.057Z,2.18
2022-12-26T23:46:32.656Z,2.14
2022-12-26T23:48:34.229Z,2.16
2022-12-26T23:50:35.803Z,2.23
2022-12-26T23:52:37.988Z,2.30
2022-12-26T23:54:39.677Z,2.29
2022-12-26T23:56:41.219Z,2.36
2022-12-26T23:58:42.878Z,2.38
